Welcome to La Porte Aviation Services!

An aviation adventure awaits

Current Weather Conditions

Available data for KPPO from the past 2 hours
LA PORTE, IN
Metar
KPPO 202155Z AUTO 20007KT 3SM BR OVC004 02/02 A2972 RMK AO2 T00230021

21:55 UTC

Wind: 200° 7kt

Visibility: 3 SM

Sky: OVC 400 ft

Temp: 2 deg C / 35.6 deg F

Dewpoint: 2 deg C / 35.6 deg F

Pressure: 29.72 inHg

Pireps (13)
ORD UA /OV ORD/TM 2208/FL014/TP E145/SK OVC014/IC NEG/RM DURG DESCENT ON FINAL RUNWAY 27L
DPA UA /OV KDPA/TM 2200/FL040/TP B350/SK OVC015/WX FV02SM/TA 02/TB LGT CHOP BLO 040/IC LGT RIME
ORD UA /OV FINAL RWY10C/TM 2114/FLDRGD/TP B739/SK 005AGLOVC
ORD UA /OV FINAL RWY10C/TM 2114/FLDRGD/TP B739/SK 005AGLOVC
MDW UA /OV FINAL/TM 2054/FL006/TP FA7X/SK OVC006
FWA UA /OV FWA/TM 2050/FL150/TP CRJ2/SK OVC/TB MOD/RM DURD 15000-10500
ORD UA /OV DPA/TM 2043/FL150/TP NUMEROUS/TB MOD CHOP 150-170
MDW UA /OV FINAL/TM 2030/FL015/TP GLF5/SK OVC 014
MKE UA /OV BAE140040/TM 2023/FL110/TP B773/SK TOP110/TB MOD
GSH UA /OV GSH/TM 2022/FL170/TP B737/TA M11/TB MOD/IC MOD RIME 170-145 IN CLOUDS
ARP UAL895 4158N 08754W 2018 F160 TB MOD SK IN CLOUDS IC NONE RM B772 OV ORD MOD TURB 160-180
OXI UA /OV OXI090010/TM 2017/FL120/TP CRJ7/TB MOD
GSH UA /OV GSH090010/TM 2016/FL170/TP DH8D/TB MOD 170-160

Connect with us on Facebook!

Facebook By Weblizar Powered By Weblizar